createdAt,value
2023-01-15T00:02:03.204Z,0.70
2023-01-15T00:04:51.634Z,1.23
2023-01-15T00:07:37.426Z,1.30
2023-01-15T00:10:22.966Z,0.90
2023-01-15T00:13:08.762Z,0.80
2023-01-15T00:15:54.180Z,1.55
2023-01-15T00:18:40.009Z,1.02
2023-01-15T00:21:28.032Z,1.10
2023-01-15T00:24:32.057Z,1.05
2023-01-15T00:27:36.209Z,0.98
2023-01-15T00:30:21.728Z,1.00
2023-01-15T00:33:07.134Z,1.40
2023-01-15T00:35:52.459Z,1.13
2023-01-15T00:38:38.027Z,1.13
2023-01-15T00:41:23.625Z,1.50
2023-01-15T00:44:08.988Z,1.63
2023-01-15T00:46:54.815Z,1.10
2023-01-15T00:49:41.723Z,1.58
2023-01-15T00:52:27.301Z,2.08
2023-01-15T00:55:12.777Z,1.17
2023-01-15T00:57:57.992Z,0.77
2023-01-15T01:00:43.760Z,1.05
2023-01-15T01:03:29.728Z,0.75
2023-01-15T01:06:32.352Z,1.52
2023-01-15T01:09:21.887Z,1.25
2023-01-15T01:12:11.029Z,0.90
2023-01-15T01:14:56.425Z,0.70
2023-01-15T01:17:42.014Z,1.35
2023-01-15T01:20:27.287Z,0.88
2023-01-15T01:23:12.663Z,1.23
2023-01-15T01:25:58.132Z,0.52
2023-01-15T01:28:48.400Z,1.15
2023-01-15T01:31:45.300Z,0.82
2023-01-15T01:34:32.030Z,1.13
2023-01-15T01:37:17.533Z,1.20
2023-01-15T01:40:03.424Z,0.90
2023-01-15T01:42:49.043Z,1.13
2023-01-15T01:45:34.764Z,1.30
2023-01-15T01:48:26.714Z,1.20
2023-01-15T01:51:12.963Z,0.93
2023-01-15T01:53:59.854Z,1.90
2023-01-15T01:56:46.184Z,0.82
2023-01-15T01:59:32.894Z,1.23
2023-01-15T02:02:24.826Z,2.53
2023-01-15T02:05:19.963Z,0.88
2023-01-15T02:08:12.134Z,0.90
2023-01-15T02:10:57.814Z,1.95
2023-01-15T02:14:25.847Z,1.40
2023-01-15T02:17:14.172Z,1.33
2023-01-15T02:20:18.358Z,1.52
2023-01-15T02:23:07.003Z,1.45
2023-01-15T02:26:08.502Z,1.48
2023-01-15T02:29:10.390Z,1.45
2023-01-15T02:31:55.844Z,1.20
2023-01-15T02:35:03.603Z,1.40
2023-01-15T02:37:54.181Z,1.70
2023-01-15T02:40:41.162Z,1.10
2023-01-15T02:43:29.628Z,2.00
2023-01-15T02:46:16.645Z,1.30
2023-01-15T02:49:05.075Z,2.00
2023-01-15T02:52:01.002Z,1.23
2023-01-15T02:54:51.275Z,1.05
2023-01-15T02:57:38.934Z,0.90
2023-01-15T03:00:26.515Z,0.98
2023-01-15T03:03:14.956Z,3.13
2023-01-15T03:06:04.337Z,1.27
2023-01-15T03:08:50.694Z,0.98
2023-01-15T03:11:47.198Z,1.20
2023-01-15T03:15:06.933Z,1.90
2023-01-15T03:17:56.421Z,1.73
2023-01-15T03:20:53.174Z,1.42
2023-01-15T03:23:43.138Z,1.50
2023-01-15T03:26:29.329Z,0.80
2023-01-15T03:29:15.266Z,1.95
2023-01-15T03:32:01.103Z,1.13
2023-01-15T03:34:55.042Z,1.33
2023-01-15T03:37:40.896Z,1.20
2023-01-15T03:40:26.459Z,0.90
2023-01-15T03:43:34.297Z,0.95
2023-01-15T03:46:24.330Z,1.10
2023-01-15T03:49:12.407Z,1.35
2023-01-15T03:52:26.927Z,1.17
2023-01-15T03:55:18.879Z,1.13
2023-01-15T03:58:20.717Z,3.05
2023-01-15T04:01:11.092Z,0.80
2023-01-15T04:03:58.039Z,1.20
2023-01-15T04:06:44.568Z,1.20
2023-01-15T04:09:30.437Z,2.42
2023-01-15T04:12:15.833Z,0.95
2023-01-15T04:15:01.612Z,1.00
2023-01-15T04:17:46.985Z,1.42
2023-01-15T04:20:32.485Z,2.38
2023-01-15T04:23:18.297Z,1.35
2023-01-15T04:26:03.896Z,1.00
2023-01-15T04:28:49.303Z,1.10
2023-01-15T04:31:36.164Z,2.17
2023-01-15T04:34:21.499Z,0.95
2023-01-15T04:37:07.058Z,1.58
2023-01-15T04:39:52.516Z,0.80
2023-01-15T04:42:56.519Z,1.50
2023-01-15T04:45:44.400Z,1.00
2023-01-15T04:48:29.454Z,0.88
2023-01-15T04:51:15.197Z,1.05
2023-01-15T04:54:03.567Z,2.08
2023-01-15T04:56:51.699Z,1.45
2023-01-15T04:59:36.942Z,0.80
2023-01-15T05:02:22.764Z,0.73
2023-01-15T05:05:08.631Z,1.15
2023-01-15T05:07:54.155Z,1.25
2023-01-15T05:10:39.710Z,1.42
2023-01-15T05:13:25.267Z,1.55
2023-01-15T05:16:12.504Z,2.35
2023-01-15T05:19:02.163Z,1.08
2023-01-15T05:21:47.603Z,1.08
2023-01-15T05:24:33.235Z,0.80
2023-01-15T05:27:18.736Z,1.08
2023-01-15T05:30:04.576Z,1.52
2023-01-15T05:32:49.874Z,1.45
2023-01-15T05:35:35.251Z,0.65
2023-01-15T05:38:20.821Z,1.30
2023-01-15T05:41:27.842Z,1.15
2023-01-15T05:44:14.115Z,0.63
2023-01-15T05:47:06.750Z,0.50
2023-01-15T05:49:52.609Z,0.90
2023-01-15T05:52:37.932Z,1.17
2023-01-15T05:55:23.320Z,1.25
2023-01-15T05:58:08.827Z,0.77
2023-01-15T06:00:55.172Z,0.57
2023-01-15T06:03:41.940Z,0.77
2023-01-15T06:06:27.903Z,0.70
2023-01-15T06:09:14.057Z,1.25
2023-01-15T06:11:59.435Z,0.55
2023-01-15T06:14:44.869Z,2.53
2023-01-15T06:17:30.419Z,0.73
2023-01-15T06:20:15.813Z,0.70
2023-01-15T06:23:01.135Z,1.75
2023-01-15T06:25:46.801Z,0.63
2023-01-15T06:28:32.444Z,0.90
2023-01-15T06:31:20.554Z,0.70
2023-01-15T06:34:06.125Z,0.75
2023-01-15T06:36:51.642Z,0.73
2023-01-15T06:39:37.258Z,0.63
2023-01-15T06:42:41.194Z,0.70
2023-01-15T06:45:45.178Z,0.60
2023-01-15T06:48:46.742Z,0.95
2023-01-15T06:51:36.436Z,0.82
2023-01-15T06:54:22.658Z,0.73
2023-01-15T06:57:07.905Z,0.95
2023-01-15T06:59:53.615Z,0.95
2023-01-15T07:02:51.124Z,0.77
2023-01-15T07:05:39.303Z,1.08
2023-01-15T07:08:25.353Z,1.52
2023-01-15T07:11:25.179Z,0.70
2023-01-15T07:14:13.691Z,0.52
2023-01-15T07:17:34.366Z,0.70
2023-01-15T07:20:21.662Z,1.55
2023-01-15T07:23:07.181Z,1.60
2023-01-15T07:25:53.993Z,0.68
2023-01-15T07:28:39.293Z,0.63
2023-01-15T07:31:24.749Z,1.17
2023-01-15T07:34:10.473Z,0.82
2023-01-15T07:36:56.217Z,1.20
2023-01-15T07:39:41.860Z,1.10
2023-01-15T07:42:45.813Z,1.40
2023-01-15T07:45:49.360Z,1.15
2023-01-15T07:48:53.598Z,1.20
2023-01-15T07:51:39.092Z,1.55
2023-01-15T07:54:24.849Z,0.80
2023-01-15T07:57:11.265Z,1.38
2023-01-15T07:59:57.177Z,1.33
2023-01-15T08:02:42.707Z,1.67
2023-01-15T08:05:28.192Z,1.00
2023-01-15T08:08:18.279Z,2.15
2023-01-15T08:11:22.216Z,1.40
2023-01-15T08:14:28.820Z,1.40
2023-01-15T08:17:14.348Z,1.40
2023-01-15T08:20:00.076Z,1.00
2023-01-15T08:22:46.153Z,1.30
2023-01-15T08:25:31.859Z,1.80
2023-01-15T08:28:17.389Z,2.10
2023-01-15T08:31:05.161Z,1.05
2023-01-15T08:33:50.583Z,1.38
2023-01-15T08:36:36.450Z,1.30
2023-01-15T08:39:21.967Z,1.80
2023-01-15T08:42:08.356Z,1.13
2023-01-15T08:44:53.909Z,1.15
2023-01-15T08:47:39.409Z,0.88
2023-01-15T08:50:25.006Z,1.92
2023-01-15T08:53:10.332Z,1.15
2023-01-15T08:55:56.300Z,1.10
2023-01-15T08:58:42.338Z,1.30
2023-01-15T09:01:27.951Z,1.30
2023-01-15T09:04:19.793Z,1.63
2023-01-15T09:07:05.268Z,1.80
2023-01-15T09:09:50.906Z,1.65
2023-01-15T09:12:36.663Z,1.30
2023-01-15T09:15:21.875Z,1.63
2023-01-15T09:18:07.582Z,1.60
2023-01-15T09:20:53.167Z,2.10
2023-01-15T09:23:38.522Z,1.38
2023-01-15T09:26:30.452Z,2.22
2023-01-15T09:29:15.758Z,2.08
2023-01-15T09:32:02.548Z,1.52
2023-01-15T09:34:47.921Z,1.60
2023-01-15T09:37:33.423Z,1.75
2023-01-15T09:40:44.686Z,1.42
2023-01-15T09:43:50.140Z,2.20
2023-01-15T09:46:42.729Z,1.48
2023-01-15T09:49:28.181Z,1.95
2023-01-15T09:52:22.699Z,1.60
2023-01-15T09:55:20.845Z,1.40
2023-01-15T09:58:10.332Z,2.38
2023-01-15T10:00:55.635Z,2.47
2023-01-15T10:03:51.256Z,1.67
2023-01-15T10:07:00.461Z,1.65
2023-01-15T10:09:53.385Z,2.10
2023-01-15T10:12:44.718Z,1.42
2023-01-15T10:15:44.923Z,1.38
2023-01-15T10:18:30.860Z,2.47
2023-01-15T10:21:38.995Z,2.38
2023-01-15T10:24:38.561Z,1.67
2023-01-15T10:27:27.869Z,2.00
2023-01-15T10:30:25.331Z,1.80
2023-01-15T10:33:49.092Z,1.92
2023-01-15T10:36:52.304Z,2.05
2023-01-15T10:39:51.071Z,1.65
2023-01-15T10:42:48.775Z,2.15
2023-01-15T10:45:41.297Z,1.50
2023-01-15T10:48:40.075Z,1.92
2023-01-15T10:51:50.002Z,1.83
2023-01-15T10:54:39.108Z,1.83
2023-01-15T10:58:01.839Z,1.88
2023-01-15T11:01:00.501Z,1.58
2023-01-15T11:03:46.708Z,2.10
2023-01-15T11:06:33.414Z,1.70
2023-01-15T11:09:34.746Z,2.28
2023-01-15T11:12:22.087Z,1.60
2023-01-15T11:15:40.646Z,1.75
2023-01-15T11:18:47.515Z,2.55
2023-01-15T11:21:33.520Z,2.38
2023-01-15T11:24:19.268Z,2.63
2023-01-15T11:27:06.886Z,1.58
2023-01-15T11:29:58.299Z,1.90
2023-01-15T11:32:54.893Z,1.65
2023-01-15T11:36:01.064Z,2.20
2023-01-15T11:38:49.710Z,2.00
2023-01-15T11:41:54.296Z,2.17
2023-01-15T11:44:58.455Z,1.70
2023-01-15T11:48:15.240Z,1.95
2023-01-15T11:51:08.744Z,2.58
2023-01-15T11:54:02.077Z,1.88
2023-01-15T11:56:48.515Z,2.00
2023-01-15T11:59:35.316Z,2.03
2023-01-15T12:02:44.080Z,2.45
2023-01-15T12:05:35.536Z,1.63
2023-01-15T12:08:45.869Z,1.70
2023-01-15T12:11:53.101Z,2.53
2023-01-15T12:15:04.159Z,2.45
2023-01-15T12:17:52.985Z,1.73
2023-01-15T12:20:52.007Z,1.77
2023-01-15T12:23:57.084Z,1.80
2023-01-15T12:27:12.438Z,1.60
2023-01-15T12:30:05.008Z,2.13
2023-01-15T12:33:13.588Z,1.42
2023-01-15T12:36:07.240Z,1.98
2023-01-15T12:39:07.815Z,1.98
2023-01-15T12:42:23.434Z,1.50
2023-01-15T12:45:36.890Z,1.77
2023-01-15T12:48:32.004Z,1.73
2023-01-15T12:51:24.489Z,2.25
2023-01-15T12:54:19.982Z,1.83
2023-01-15T12:57:28.638Z,1.95
2023-01-15T13:00:35.826Z,2.33
2023-01-15T13:03:30.359Z,2.47
2023-01-15T13:06:17.836Z,1.70
2023-01-15T13:09:16.989Z,2.20
2023-01-15T13:12:02.556Z,1.73
2023-01-15T13:14:48.290Z,1.55
2023-01-15T13:18:03.339Z,1.85
2023-01-15T13:20:52.103Z,1.70
2023-01-15T13:23:56.558Z,2.00
2023-01-15T13:27:13.528Z,2.03
2023-01-15T13:30:37.135Z,1.65
2023-01-15T13:33:45.919Z,1.40
2023-01-15T13:36:46.261Z,2.03
2023-01-15T13:39:40.442Z,1.23
2023-01-15T13:42:33.206Z,1.67
2023-01-15T13:45:44.134Z,2.33
2023-01-15T13:48:50.880Z,2.25
2023-01-15T13:51:43.587Z,1.85
2023-01-15T13:54:31.102Z,1.70
2023-01-15T13:57:33.793Z,1.63
2023-01-15T14:00:39.657Z,1.30
2023-01-15T14:03:36.228Z,2.35
2023-01-15T14:06:22.005Z,1.70
2023-01-15T14:09:12.420Z,2.00
2023-01-15T14:12:21.183Z,1.83
2023-01-15T14:15:26.615Z,1.45
2023-01-15T14:18:36.976Z,2.53
2023-01-15T14:21:44.424Z,1.60
2023-01-15T14:24:46.595Z,2.35
2023-01-15T14:28:12.366Z,2.05
2023-01-15T14:31:32.120Z,2.22
2023-01-15T14:34:44.447Z,1.70
2023-01-15T14:37:52.505Z,1.58
2023-01-15T14:41:20.942Z,1.92
2023-01-15T14:44:08.615Z,1.40
2023-01-15T14:47:01.758Z,1.35
2023-01-15T14:49:49.913Z,1.52
2023-01-15T14:52:36.428Z,2.28
2023-01-15T14:55:22.702Z,1.85
2023-01-15T14:58:36.977Z,3.08
2023-01-15T15:02:05.680Z,3.05
2023-01-15T15:04:54.859Z,2.53
2023-01-15T15:07:56.963Z,1.63
2023-01-15T15:11:01.704Z,2.08
2023-01-15T15:13:49.356Z,1.95
2023-01-15T15:16:45.615Z,1.98
2023-01-15T15:19:45.570Z,2.20
2023-01-15T15:22:32.927Z,2.10
2023-01-15T15:25:27.321Z,1.88
2023-01-15T15:28:13.127Z,1.95
2023-01-15T15:31:01.499Z,1.40
2023-01-15T15:33:52.876Z,1.75
2023-01-15T15:36:46.425Z,1.77
2023-01-15T15:39:45.304Z,1.73
2023-01-15T15:42:53.001Z,2.83
2023-01-15T15:45:57.413Z,2.30
2023-01-15T15:48:53.423Z,2.40
2023-01-15T15:51:45.102Z,2.00
2023-01-15T15:54:32.916Z,2.00
2023-01-15T15:57:20.411Z,2.05
2023-01-15T16:00:15.904Z,2.30
2023-01-15T16:03:07.308Z,2.47
2023-01-15T16:05:58.817Z,3.78
2023-01-15T16:08:53.679Z,7.82
2023-01-15T16:11:41.185Z,9.02
2023-01-15T16:14:28.511Z,6.20
2023-01-15T16:17:15.365Z,6.38
2023-01-15T16:20:01.353Z,5.05
2023-01-15T16:23:02.466Z,4.60
2023-01-15T16:26:18.368Z,6.28
2023-01-15T16:29:07.295Z,6.03
2023-01-15T16:31:56.148Z,6.07
2023-01-15T16:34:42.119Z,5.70
2023-01-15T16:37:32.968Z,5.00
2023-01-15T16:40:27.681Z,4.95
2023-01-15T16:43:32.261Z,5.30
2023-01-15T16:46:24.444Z,3.83
2023-01-15T16:49:22.223Z,4.57
2023-01-15T16:52:45.733Z,3.42
2023-01-15T16:55:34.428Z,3.75
2023-01-15T16:58:22.426Z,2.60
2023-01-15T17:01:35.135Z,4.18
2023-01-15T17:04:31.672Z,3.00
2023-01-15T17:07:23.009Z,3.38
2023-01-15T17:10:25.635Z,3.92
2023-01-15T17:13:23.201Z,4.95
2023-01-15T17:16:23.111Z,2.97
2023-01-15T17:19:11.655Z,2.85
2023-01-15T17:21:57.319Z,2.55
2023-01-15T17:24:55.015Z,2.47
2023-01-15T17:27:40.255Z,4.95
2023-01-15T17:30:34.923Z,3.05
2023-01-15T17:33:21.610Z,3.30
2023-01-15T17:36:08.725Z,2.95
2023-01-15T17:38:55.399Z,2.28
2023-01-15T17:41:41.478Z,2.58
2023-01-15T17:44:27.495Z,2.72
2023-01-15T17:47:16.067Z,2.72
2023-01-15T17:50:01.677Z,3.58
2023-01-15T17:52:48.111Z,2.90
2023-01-15T17:55:52.171Z,2.47
2023-01-15T17:58:56.067Z,3.08
2023-01-15T18:02:02.783Z,2.05
2023-01-15T18:05:12.388Z,2.10
2023-01-15T18:07:59.218Z,2.30
2023-01-15T18:10:45.348Z,2.47
2023-01-15T18:13:31.175Z,2.30
2023-01-15T18:16:17.440Z,2.63
2023-01-15T18:19:03.179Z,2.55
2023-01-15T18:21:49.009Z,2.42
2023-01-15T18:24:35.044Z,2.63
2023-01-15T18:27:20.723Z,2.00
2023-01-15T18:30:06.899Z,1.85
2023-01-15T18:32:52.714Z,1.67
2023-01-15T18:35:38.207Z,2.88
2023-01-15T18:38:23.345Z,2.47
2023-01-15T18:41:34.503Z,3.00
2023-01-15T18:44:41.502Z,1.98
2023-01-15T18:47:27.218Z,2.80
2023-01-15T18:50:12.592Z,2.03
2023-01-15T18:52:58.115Z,2.22
2023-01-15T18:55:43.938Z,2.00
2023-01-15T18:58:29.557Z,2.28
2023-01-15T19:01:15.952Z,2.10
2023-01-15T19:04:01.847Z,1.90
2023-01-15T19:06:47.629Z,2.60
2023-01-15T19:09:33.104Z,2.53
2023-01-15T19:12:19.930Z,2.47
2023-01-15T19:15:25.397Z,1.70
2023-01-15T19:18:30.008Z,2.65
2023-01-15T19:21:17.851Z,2.15
2023-01-15T19:24:03.569Z,2.72
2023-01-15T19:26:48.747Z,2.72
2023-01-15T19:29:34.373Z,3.75
2023-01-15T19:32:20.003Z,2.25
2023-01-15T19:35:05.592Z,2.22
2023-01-15T19:37:53.184Z,2.15
2023-01-15T19:40:42.808Z,2.95
2023-01-15T19:43:46.734Z,2.80
2023-01-15T19:46:50.882Z,2.13
2023-01-15T19:49:55.900Z,4.53
2023-01-15T19:52:41.706Z,3.03
2023-01-15T19:55:29.378Z,2.65
2023-01-15T19:58:15.807Z,2.33
2023-01-15T20:01:02.134Z,3.78
2023-01-15T20:03:47.725Z,2.47
2023-01-15T20:06:33.332Z,2.53
2023-01-15T20:09:18.851Z,2.70
2023-01-15T20:12:23.448Z,2.35
2023-01-15T20:15:09.664Z,2.75
2023-01-15T20:17:56.423Z,2.40
2023-01-15T20:20:41.694Z,3.00
2023-01-15T20:23:27.344Z,2.63
2023-01-15T20:26:14.670Z,2.28
2023-01-15T20:29:00.118Z,3.03
2023-01-15T20:31:45.819Z,1.85
2023-01-15T20:34:32.241Z,2.28
2023-01-15T20:37:18.181Z,3.58
2023-01-15T20:40:03.983Z,3.72
2023-01-15T20:43:08.284Z,3.10
2023-01-15T20:45:53.752Z,2.65
2023-01-15T20:48:57.503Z,2.70
2023-01-15T20:51:45.223Z,3.30
2023-01-15T20:54:30.821Z,2.67
2023-01-15T20:57:16.344Z,2.53
2023-01-15T21:00:02.520Z,2.88
2023-01-15T21:02:48.265Z,2.90
2023-01-15T21:05:33.571Z,3.10
2023-01-15T21:08:20.944Z,2.47
2023-01-15T21:11:06.605Z,2.90
2023-01-15T21:13:52.059Z,3.47
2023-01-15T21:16:37.740Z,4.85
2023-01-15T21:19:23.569Z,5.50
2023-01-15T21:22:09.015Z,4.50
2023-01-15T21:24:54.729Z,5.47
2023-01-15T21:27:40.867Z,5.22
2023-01-15T21:30:26.175Z,4.85
2023-01-15T21:33:11.864Z,3.65
2023-01-15T21:35:57.335Z,4.20
2023-01-15T21:38:42.947Z,3.35
2023-01-15T21:41:47.467Z,6.55
2023-01-15T21:44:33.019Z,3.53
2023-01-15T21:47:19.792Z,4.40
2023-01-15T21:50:05.937Z,3.88
2023-01-15T21:52:52.194Z,3.05
2023-01-15T21:55:37.979Z,4.28
2023-01-15T21:58:23.728Z,3.75
2023-01-15T22:01:14.784Z,3.83
2023-01-15T22:04:00.715Z,3.30
2023-01-15T22:06:46.641Z,3.67
2023-01-15T22:09:31.885Z,3.28
2023-01-15T22:12:17.994Z,3.40
2023-01-15T22:15:03.420Z,5.97
2023-01-15T22:17:51.608Z,4.70
2023-01-15T22:20:37.542Z,3.38
2023-01-15T22:23:22.923Z,3.67
2023-01-15T22:26:22.158Z,4.50
2023-01-15T22:29:09.391Z,3.45
2023-01-15T22:31:56.077Z,3.63
2023-01-15T22:34:43.074Z,4.13
2023-01-15T22:37:28.656Z,5.10
2023-01-15T22:40:14.123Z,3.47
2023-01-15T22:42:59.825Z,4.40
2023-01-15T22:45:45.521Z,4.07
2023-01-15T22:48:31.032Z,4.38
2023-01-15T22:51:16.566Z,3.70
2023-01-15T22:54:02.242Z,3.97
2023-01-15T22:56:48.132Z,3.65
2023-01-15T22:59:33.555Z,3.65
2023-01-15T23:02:39.223Z,4.38
2023-01-15T23:05:25.025Z,4.13
2023-01-15T23:08:10.455Z,3.13
2023-01-15T23:10:56.343Z,4.07
2023-01-15T23:13:42.450Z,3.35
2023-01-15T23:16:27.689Z,5.43
2023-01-15T23:19:14.234Z,4.05
2023-01-15T23:22:00.602Z,4.72
2023-01-15T23:24:46.218Z,3.03
2023-01-15T23:27:31.883Z,3.28
2023-01-15T23:30:18.212Z,3.17
2023-01-15T23:33:03.810Z,4.15
2023-01-15T23:35:49.720Z,2.92
2023-01-15T23:38:36.616Z,4.00
2023-01-15T23:41:44.101Z,4.47
2023-01-15T23:44:47.968Z,3.40
2023-01-15T23:47:33.469Z,2.88
2023-01-15T23:50:19.201Z,3.30
2023-01-15T23:53:05.537Z,3.00
2023-01-15T23:55:51.124Z,3.28
2023-01-15T23:58:36.487Z,3.42
